Time;durP1;ratioP1;P1;durP2;ratioP2;P2;SDS_P1;SDS_P2;PMS_P1;PMS_P2;Temp;Humidity;BMP_temperature;BMP_pressure;BME280_temperature;BME280_humidity;BME280_pressure;Samples;Min_cycle;Max_cycle;Signal;HPM_P1;HPM_P2
2023/03/28 00:02:08;;;;;;;2.17;0.82;;;-0.60;92.90;;;;;;5073891;28;20752;-70
2023/03/28 00:04:36;;;;;;;1.95;0.55;;;-0.70;94.00;;;;;;5079787;28;20055;-70
2023/03/28 00:07:04;;;;;;;3.05;1.02;;;-0.70;92.80;;;;;;5081827;28;20086;-70
2023/03/28 00:09:31;;;;;;;1.92;0.90;;;-0.70;92.90;;;;;;5063185;28;20080;-70
2023/03/28 00:11:58;;;;;;;4.47;0.85;;;-0.80;93.70;;;;;;5069724;28;20052;-70
2023/03/28 00:14:25;;;;;;;1.02;0.60;;;-0.80;93.60;;;;;;5074209;28;20048;-70
2023/03/28 00:16:52;;;;;;;2.60;0.80;;;-0.90;94.40;;;;;;5061677;28;20048;-70
2023/03/28 00:19:19;;;;;;;5.45;0.65;;;-0.80;94.20;;;;;;5073782;28;20055;-70
2023/03/28 00:21:48;;;;;;;1.67;0.70;;;-0.70;94.10;;;;;;5064053;28;20045;-70
2023/03/28 00:24:20;;;;;;;6.90;0.73;;;-0.70;94.20;;;;;;5080353;28;20115;-70
2023/03/28 00:26:48;;;;;;;2.03;0.95;;;-0.60;93.90;;;;;;5079280;28;20056;-70
2023/03/28 00:29:19;;;;;;;4.30;1.00;;;-0.60;94.40;;;;;;5065856;28;20055;-70
2023/03/28 00:31:48;;;;;;;1.88;0.60;;;-0.50;93.70;;;;;;5059788;28;20052;-70
2023/03/28 00:34:16;;;;;;;2.28;0.73;;;-0.50;94.00;;;;;;5054728;28;20048;-70
2023/03/28 00:36:43;;;;;;;4.88;1.05;;;-0.50;93.60;;;;;;5088235;22;21596;-71
2023/03/28 00:39:10;;;;;;;3.80;0.80;;;-0.60;94.00;;;;;;5071460;28;20057;-71
2023/03/28 00:41:41;;;;;;;6.20;1.40;;;-0.70;94.10;;;;;;5076028;28;20044;-71
2023/03/28 00:44:36;;;;;;;1.35;0.80;;;-0.80;94.90;;;;;;5063547;28;20059;-71
2023/03/28 00:47:03;;;;;;;1.60;0.70;;;-0.80;94.80;;;;;;5078229;28;20047;-71
2023/03/28 00:49:31;;;;;;;4.97;0.80;;;-0.80;95.10;;;;;;5061162;28;20305;-71
2023/03/28 00:52:01;;;;;;;2.25;0.75;;;-0.80;94.40;;;;;;5075617;28;20059;-71
2023/03/28 00:54:32;;;;;;;1.30;0.95;;;-0.80;93.80;;;;;;5055764;28;20048;-71
2023/03/28 00:57:01;;;;;;;3.10;0.85;;;-0.70;93.50;;;;;;5074944;28;20058;-71
2023/03/28 00:59:31;;;;;;;3.00;1.33;;;-0.70;93.50;;;;;;5070174;28;20052;-71
2023/03/28 01:01:58;;;;;;;1.83;0.80;;;-0.70;92.60;;;;;;5054188;28;20052;-71
2023/03/28 01:04:35;;;;;;;6.88;1.25;;;-0.70;93.20;;;;;;5083386;28;20052;-71
2023/03/28 01:07:03;;;;;;;8.48;1.20;;;-0.60;91.90;;;;;;5077883;28;20436;-71
2023/03/28 01:09:30;;;;;;;4.80;1.05;;;-0.60;90.90;;;;;;5081981;28;20079;-71
2023/03/28 01:11:58;;;;;;;3.25;1.13;;;-0.50;89.70;;;;;;5062396;28;20055;-71
2023/03/28 01:14:28;;;;;;;1.80;1.05;;;-0.50;89.80;;;;;;5071545;28;20048;-71
2023/03/28 01:16:57;;;;;;;7.00;1.35;;;-0.40;88.80;;;;;;5048791;28;20052;-71
2023/03/28 01:20:01;;;;;;;8.38;1.48;;;-0.40;87.80;;;;;;5072899;28;20053;-71
2023/03/28 01:22:40;;;;;;;1.73;0.73;;;-0.30;87.00;;;;;;5077673;28;20055;-71
2023/03/28 01:25:37;;;;;;;1.58;0.70;;;-0.30;87.00;;;;;;5061780;28;20063;-71
2023/03/28 01:28:19;;;;;;;4.00;1.10;;;-0.30;87.80;;;;;;5073178;28;20048;-71
2023/03/28 01:30:57;;;;;;;3.60;0.73;;;-0.30;86.90;;;;;;5080358;28;20052;-71
2023/03/28 01:33:55;;;;;;;4.57;0.90;;;-0.30;86.70;;;;;;5076715;28;20052;-71
2023/03/28 01:36:34;;;;;;;9.65;1.40;;;-0.20;88.60;;;;;;5061756;28;20052;-71
2023/03/28 01:39:35;;;;;;;2.08;1.08;;;-0.20;87.00;;;;;;5076336;28;20127;-71
2023/03/28 01:42:14;;;;;;;2.92;1.10;;;-0.30;88.10;;;;;;5080115;28;20075;-72
2023/03/28 01:44:47;;;;;;;2.75;1.00;;;-0.20;87.00;;;;;;5075534;28;20053;-71
2023/03/28 01:47:36;;;;;;;2.33;1.33;;;-0.30;87.60;;;;;;5083107;22;20044;-72
2023/03/28 01:50:26;;;;;;;2.53;1.20;;;-0.30;87.10;;;;;;5056989;28;20079;-71
2023/03/28 01:53:08;;;;;;;5.95;1.40;;;-0.30;87.40;;;;;;5059391;28;20048;-71
2023/03/28 01:55:50;;;;;;;1.70;1.17;;;-0.30;86.20;;;;;;5062917;28;20056;-71
2023/03/28 01:58:45;;;;;;;3.80;0.95;;;-0.30;86.40;;;;;;5056218;28;20048;-71
2023/03/28 02:01:21;;;;;;;2.65;1.08;;;-0.30;84.90;;;;;;5051464;28;20064;-71
2023/03/28 02:07:17;;;;;;;2.22;0.50;;;-0.40;84.90;;;;;;5010367;28;20060;-71
2023/03/28 02:09:46;;;;;;;5.55;0.95;;;-0.40;85.70;;;;;;5004767;28;20054;-71
2023/03/28 02:12:23;;;;;;;1.90;0.93;;;-0.40;85.50;;;;;;5005020;28;20988;-71
2023/03/28 02:14:52;;;;;;;7.72;1.02;;;-0.40;84.80;;;;;;5006104;28;20054;-71
2023/03/28 02:17:23;;;;;;;2.47;0.60;;;-0.40;84.80;;;;;;5005788;28;20053;-71
2023/03/28 02:19:57;;;;;;;2.95;1.13;;;-0.40;83.90;;;;;;4983966;28;20533;-72
2023/03/28 02:22:33;;;;;;;1.45;0.70;;;-0.40;85.20;;;;;;5012491;28;20077;-71
2023/03/28 02:25:01;;;;;;;3.47;1.05;;;-0.40;84.40;;;;;;5014301;28;20077;-71
2023/03/28 02:27:28;;;;;;;3.00;0.93;;;-0.50;85.10;;;;;;5006313;28;20053;-70
2023/03/28 02:29:55;;;;;;;3.90;1.00;;;-0.50;84.60;;;;;;5008467;28;20049;-70
2023/03/28 02:32:22;;;;;;;1.35;0.70;;;-0.50;85.30;;;;;;5004519;28;20475;-70
2023/03/28 02:34:53;;;;;;;5.57;1.00;;;-0.40;84.30;;;;;;4992898;28;20077;-70
2023/03/28 02:37:48;;;;;;;3.33;1.02;;;-0.50;85.10;;;;;;5005195;28;20060;-70
2023/03/28 02:40:40;;;;;;;3.78;0.70;;;-0.40;84.90;;;;;;5006479;28;20056;-70
2023/03/28 02:43:40;;;;;;;4.22;0.82;;;-0.50;86.50;;;;;;5004238;28;20849;-70
2023/03/28 02:46:30;;;;;;;3.30;0.80;;;-0.50;85.70;;;;;;5007545;28;20053;-70
2023/03/28 02:49:07;;;;;;;5.13;1.02;;;-0.40;85.70;;;;;;5005617;28;20140;-70
2023/03/28 02:51:49;;;;;;;3.17;0.93;;;-0.30;85.10;;;;;;5005332;28;20062;-70
2023/03/28 02:54:30;;;;;;;5.53;1.00;;;-0.30;85.80;;;;;;5005689;28;20049;-70
2023/03/28 02:57:00;;;;;;;4.28;0.93;;;-0.40;85.70;;;;;;5010539;28;20046;-70
2023/03/28 02:59:37;;;;;;;2.83;1.02;;;-0.40;86.90;;;;;;5012311;28;20058;-70
2023/03/28 03:02:04;;;;;;;3.40;1.10;;;-0.40;86.80;;;;;;5009936;28;20137;-70
2023/03/28 03:04:31;;;;;;;2.20;0.75;;;-0.40;87.80;;;;;;5005493;28;20046;-70
2023/03/28 03:07:01;;;;;;;3.63;1.25;;;-0.40;87.50;;;;;;4990382;28;20057;-70
2023/03/28 03:09:28;;;;;;;2.47;0.68;;;-0.50;88.30;;;;;;5005536;28;20058;-70
2023/03/28 03:11:55;;;;;;;1.92;0.85;;;-0.60;87.60;;;;;;5003596;28;20065;-70
2023/03/28 03:14:22;;;;;;;2.30;1.10;;;-0.60;87.90;;;;;;5005412;28;20505;-70
2023/03/28 03:16:50;;;;;;;5.70;1.02;;;-0.70;87.40;;;;;;5002207;28;20042;-70
2023/03/28 03:19:18;;;;;;;12.95;1.50;;;-0.80;88.30;;;;;;5003788;28;20582;-70
2023/03/28 03:21:45;;;;;;;4.28;1.00;;;-0.90;88.70;;;;;;5009824;28;20042;-70
2023/03/28 03:24:13;;;;;;;4.43;1.30;;;-1.00;89.00;;;;;;5004782;28;20046;-70
2023/03/28 03:26:40;;;;;;;1.48;1.10;;;-1.10;89.70;;;;;;5002842;28;20770;-70
2023/03/28 03:29:07;;;;;;;3.55;1.38;;;-1.10;89.50;;;;;;5001256;28;20064;-70
2023/03/28 03:31:33;;;;;;;6.35;1.52;;;-1.20;89.80;;;;;;5001543;28;20713;-70
2023/03/28 03:34:00;;;;;;;3.40;1.35;;;-1.10;89.50;;;;;;5003455;28;20067;-70
2023/03/28 03:36:30;;;;;;;3.97;1.30;;;-1.20;90.40;;;;;;5004631;28;20458;-70
2023/03/28 03:38:57;;;;;;;7.75;1.35;;;-1.20;90.10;;;;;;5012009;28;20054;-70
2023/03/28 03:44:14;;;;;;;8.23;1.52;;;-1.20;89.70;;;;;;5002622;28;20050;-70
2023/03/28 03:46:40;;;;;;;3.42;0.93;;;-1.30;89.80;;;;;;5020494;22;20055;-70
2023/03/28 03:49:08;;;;;;;3.83;1.17;;;-1.30;90.00;;;;;;5026426;28;20059;-70
2023/03/28 03:51:35;;;;;;;6.75;1.90;;;-1.30;89.90;;;;;;5043719;28;20049;-70
2023/03/28 03:54:02;;;;;;;7.03;1.38;;;-1.30;89.90;;;;;;5039432;28;20049;-70
2023/03/28 03:56:29;;;;;;;9.80;1.13;;;-1.30;89.20;;;;;;5039868;28;20057;-70
2023/03/28 03:58:56;;;;;;;4.68;1.40;;;-1.30;89.60;;;;;;5039847;28;20496;-70
2023/03/28 04:01:24;;;;;;;2.05;1.38;;;-1.40;89.50;;;;;;5043581;28;20056;-70
2023/03/28 04:03:51;;;;;;;2.08;1.00;;;-1.40;90.40;;;;;;5033085;28;20046;-70
2023/03/28 04:06:18;;;;;;;7.47;1.42;;;-1.40;90.00;;;;;;5043023;28;20730;-70
2023/03/28 04:08:47;;;;;;;2.88;1.27;;;-1.30;89.20;;;;;;5040932;28;20059;-70
2023/03/28 04:11:14;;;;;;;3.55;1.05;;;-1.30;89.00;;;;;;5043695;28;20048;-70
2023/03/28 04:13:41;;;;;;;5.85;1.60;;;-1.30;89.30;;;;;;5041804;28;20048;-70
2023/03/28 04:16:08;;;;;;;2.55;1.15;;;-1.20;88.90;;;;;;5025693;28;20049;-70
2023/03/28 04:18:35;;;;;;;5.30;0.90;;;-1.20;88.80;;;;;;5023416;28;20049;-70
2023/03/28 04:21:02;;;;;;;2.92;1.40;;;-1.20;88.50;;;;;;5043254;28;20056;-70
2023/03/28 04:23:29;;;;;;;4.22;1.10;;;-1.20;89.00;;;;;;5037765;28;20065;-70
2023/03/28 04:25:56;;;;;;;2.78;1.17;;;-1.30;89.60;;;;;;5042495;28;20049;-70
2023/03/28 04:28:24;;;;;;;2.85;1.27;;;-1.30;89.10;;;;;;5025120;28;20052;-70
2023/03/28 04:30:53;;;;;;;7.93;1.48;;;-1.30;89.40;;;;;;5032920;28;20057;-70
2023/03/28 04:33:24;;;;;;;5.28;1.33;;;-1.30;89.00;;;;;;5041362;28;20471;-70
2023/03/28 04:35:58;;;;;;;5.68;1.35;;;-1.30;88.70;;;;;;5023643;28;20049;-70
2023/03/28 04:38:27;;;;;;;2.55;1.05;;;-1.30;89.30;;;;;;5020719;28;20140;-70
2023/03/28 04:40:56;;;;;;;5.70;0.90;;;-1.30;88.60;;;;;;5024133;28;20057;-70
2023/03/28 04:43:27;;;;;;;6.25;2.10;;;-1.30;89.60;;;;;;5041983;28;20111;-70
2023/03/28 04:45:55;;;;;;;6.45;1.80;;;-1.30;89.50;;;;;;5041782;28;20056;-71
2023/03/28 04:48:23;;;;;;;38.92;17.92;;;-1.40;89.60;;;;;;5040688;28;20052;-71
2023/03/28 04:50:50;;;;;;;11.60;5.43;;;-1.50;90.60;;;;;;5042243;28;20053;-71
2023/03/28 04:53:17;;;;;;;28.27;12.75;;;-1.60;90.90;;;;;;5040369;28;20056;-71
2023/03/28 04:55:49;;;;;;;17.17;4.95;;;-1.60;91.50;;;;;;5036136;28;20064;-71
2023/03/28 04:58:17;;;;;;;4.03;2.05;;;-1.60;90.80;;;;;;5037077;28;20102;-71
2023/03/28 05:00:44;;;;;;;9.05;1.20;;;-1.70;91.80;;;;;;5041410;28;20106;-71
2023/03/28 05:03:18;;;;;;;9.95;1.88;;;-1.60;91.50;;;;;;5042366;28;20686;-73
2023/03/28 05:05:47;;;;;;;3.22;1.42;;;-1.70;92.40;;;;;;5026248;28;20159;-72
2023/03/28 05:08:15;;;;;;;7.68;1.60;;;-1.70;93.30;;;;;;5045637;28;20055;-73
2023/03/28 05:10:44;;;;;;;4.30;1.73;;;-1.70;92.50;;;;;;5042301;28;20561;-73
2023/03/28 05:16:34;;;;;;;9.65;2.28;;;-1.60;92.90;;;;;;4979775;28;20042;-70
2023/03/28 05:19:01;;;;;;;5.22;1.50;;;-1.70;93.00;;;;;;4969387;28;20070;-74
2023/03/28 05:21:28;;;;;;;10.57;2.78;;;-1.70;93.30;;;;;;4988137;28;20111;-71
2023/03/28 05:23:55;;;;;;;11.85;2.95;;;-1.60;93.80;;;;;;4992883;28;20046;-72
2023/03/28 05:26:22;;;;;;;6.97;2.33;;;-1.60;93.00;;;;;;4977420;28;20062;-70
2023/03/28 05:28:49;;;;;;;8.98;2.78;;;-1.60;93.30;;;;;;4971268;28;20050;-72
2023/03/28 05:31:16;;;;;;;4.03;2.30;;;-1.60;93.40;;;;;;4973215;28;20054;-73
2023/03/28 05:33:43;;;;;;;18.75;2.95;;;-1.60;93.00;;;;;;4988123;28;20058;-72
2023/03/28 05:36:10;;;;;;;6.35;2.80;;;-1.60;93.30;;;;;;4994525;28;20045;-72
2023/03/28 05:38:37;;;;;;;14.60;2.88;;;-1.50;92.60;;;;;;4991043;28;20648;-77
2023/03/28 05:41:04;;;;;;;6.65;2.47;;;-1.50;92.10;;;;;;4999131;28;20049;-75
2023/03/28 05:43:31;;;;;;;9.05;3.05;;;-1.50;92.30;;;;;;4989920;28;20101;-71
2023/03/28 05:45:57;;;;;;;9.60;3.33;;;-1.50;93.00;;;;;;4994797;28;20058;-71
2023/03/28 05:48:24;;;;;;;11.95;3.83;;;-1.60;92.90;;;;;;4992075;28;20061;-71
2023/03/28 05:50:51;;;;;;;23.48;4.38;;;-1.60;93.20;;;;;;4979467;28;20061;-71
2023/03/28 05:53:19;;;;;;;11.55;3.63;;;-1.60;93.20;;;;;;4988412;28;20054;-71
2023/03/28 05:55:45;;;;;;;8.50;3.67;;;-1.60;93.00;;;;;;4993144;28;20141;-71
2023/03/28 05:58:12;;;;;;;8.32;3.20;;;-1.60;93.40;;;;;;4985040;28;20510;-71
2023/03/28 06:00:41;;;;;;;7.65;2.58;;;-1.60;93.40;;;;;;4987450;28;20054;-71
2023/03/28 06:03:08;;;;;;;9.88;3.00;;;-1.60;93.60;;;;;;4986321;28;20133;-71
2023/03/28 06:05:42;;;;;;;5.28;2.45;;;-1.60;93.80;;;;;;4990131;28;20061;-71
2023/03/28 06:08:09;;;;;;;10.57;2.22;;;-1.60;95.10;;;;;;4986730;28;20050;-71
2023/03/28 06:10:36;;;;;;;13.18;1.50;;;-1.50;95.40;;;;;;4990078;28;20058;-71
2023/03/28 06:13:03;;;;;;;4.40;1.33;;;-1.40;95.40;;;;;;4963759;28;20046;-71
2023/03/28 06:15:52;;;;;;;5.63;1.08;;;-1.30;94.90;;;;;;4992055;28;20430;-71
2023/03/28 06:18:19;;;;;;;7.30;1.40;;;-1.20;93.10;;;;;;4969526;28;20057;-73
2023/03/28 06:20:45;;;;;;;6.85;1.30;;;-1.10;92.70;;;;;;4987886;28;20050;-73
2023/03/28 06:23:12;;;;;;;3.15;0.95;;;-1.10;92.70;;;;;;4991305;28;20054;-73
2023/03/28 06:25:39;;;;;;;9.35;1.73;;;-0.90;94.40;;;;;;4988620;28;20467;-73
2023/03/28 06:28:06;;;;;;;9.65;1.67;;;-0.60;94.50;;;;;;4990501;28;20065;-73
2023/03/28 06:30:33;;;;;;;7.93;2.35;;;-0.10;92.20;;;;;;4987664;28;20046;-73
2023/03/28 06:33:00;;;;;;;6.57;1.70;;;0.60;91.00;;;;;;4985614;28;20062;-73
2023/03/28 06:35:27;;;;;;;8.30;1.75;;;1.30;85.40;;;;;;4983815;28;20046;-73
2023/03/28 06:37:54;;;;;;;8.52;1.65;;;1.50;85.20;;;;;;4988728;28;20043;-71
2023/03/28 06:40:21;;;;;;;8.90;2.10;;;1.40;83.20;;;;;;4988291;28;20399;-74
2023/03/28 06:42:48;;;;;;;8.93;1.95;;;1.60;84.80;;;;;;4989695;28;20427;-72
2023/03/28 06:45:33;;;;;;;3.83;1.23;;;2.10;83.80;;;;;;4991103;28;20131;-72
2023/03/28 06:47:59;;;;;;;3.22;1.38;;;2.30;79.00;;;;;;4985046;28;20046;-72
2023/03/28 06:50:30;;;;;;;1.98;1.33;;;2.30;77.90;;;;;;4987555;28;20132;-71
2023/03/28 06:52:56;;;;;;;6.10;1.00;;;2.10;78.90;;;;;;4988190;28;20065;-73
2023/03/28 06:55:23;;;;;;;1.63;1.00;;;2.70;76.80;;;;;;4999823;28;20046;-73
2023/03/28 06:57:50;;;;;;;5.68;1.13;;;3.40;73.80;;;;;;4991981;28;20046;-72
2023/03/28 07:00:17;;;;;;;5.45;1.10;;;4.00;71.90;;;;;;4993932;28;20057;-73
2023/03/28 07:02:44;;;;;;;1.67;0.80;;;4.60;71.10;;;;;;4993774;28;20049;-72
2023/03/28 07:05:11;;;;;;;4.22;1.27;;;4.70;68.70;;;;;;4998332;28;20056;-72
2023/03/28 07:07:38;;;;;;;5.38;1.00;;;5.20;68.60;;;;;;4978048;28;20042;-73
2023/03/28 07:10:06;;;;;;;5.53;1.35;;;5.40;65.30;;;;;;4989528;28;20048;-73
2023/03/28 07:12:33;;;;;;;4.88;0.95;;;5.60;64.70;;;;;;4991517;28;20050;-73
2023/03/28 07:15:09;;;;;;;3.35;1.10;;;5.10;65.10;;;;;;4992146;28;20054;-73
2023/03/28 07:17:36;;;;;;;4.65;1.10;;;4.40;65.80;;;;;;4992011;28;20624;-73
2023/03/28 07:20:04;;;;;;;2.90;1.20;;;3.80;67.30;;;;;;4993917;28;20074;-73
2023/03/28 07:22:31;;;;;;;5.50;1.70;;;3.40;70.30;;;;;;4992476;28;20054;-73
2023/03/28 07:24:58;;;;;;;9.35;1.40;;;3.40;71.80;;;;;;4985571;28;20061;-74
2023/03/28 07:27:25;;;;;;;6.32;1.88;;;3.20;72.50;;;;;;4989642;28;20084;-74
2023/03/28 07:29:51;;;;;;;4.80;1.42;;;3.10;77.40;;;;;;4993134;28;20069;-74
2023/03/28 07:32:18;;;;;;;3.65;1.17;;;3.90;76.00;;;;;;4992321;28;20054;-74
2023/03/28 07:34:45;;;;;;;3.97;1.75;;;4.20;73.50;;;;;;4993023;28;20072;-74
2023/03/28 07:37:12;;;;;;;4.45;1.55;;;4.50;76.00;;;;;;4987754;28;20503;-74
2023/03/28 07:39:42;;;;;;;9.23;1.70;;;5.70;69.50;;;;;;4989469;28;20054;-74
2023/03/28 07:42:10;;;;;;;2.05;1.08;;;5.60;70.50;;;;;;4999022;22;20049;-75
2023/03/28 07:44:37;;;;;;;4.70;1.52;;;5.30;70.40;;;;;;5048599;22;20060;-75
2023/03/28 07:47:08;;;;;;;5.68;1.80;;;4.70;70.80;;;;;;5020841;28;20091;-74
2023/03/28 07:49:35;;;;;;;3.10;1.10;;;4.40;72.00;;;;;;5025089;28;20059;-74
2023/03/28 07:52:02;;;;;;;5.32;1.90;;;3.80;73.10;;;;;;5015764;28;20049;-74
2023/03/28 07:54:31;;;;;;;6.57;1.40;;;3.50;75.60;;;;;;5023390;28;20067;-74
2023/03/28 07:56:59;;;;;;;5.75;1.55;;;3.30;79.10;;;;;;5019486;28;20469;-74
2023/03/28 07:59:26;;;;;;;7.03;1.35;;;3.60;78.00;;;;;;5023163;28;20083;-73
2023/03/28 08:01:53;;;;;;;6.55;1.33;;;3.60;76.20;;;;;;5021182;28;20045;-74
2023/03/28 08:04:20;;;;;;;7.18;1.45;;;3.40;76.30;;;;;;5023082;28;20490;-74
2023/03/28 08:06:46;;;;;;;8.43;1.63;;;3.30;76.70;;;;;;5021843;28;20093;-74
2023/03/28 08:09:15;;;;;;;6.82;1.80;;;3.30;76.60;;;;;;5023360;28;20058;-73
2023/03/28 08:11:44;;;;;;;9.88;2.25;;;3.00;77.90;;;;;;5015341;28;20060;-74
2023/03/28 08:14:13;;;;;;;7.53;3.00;;;2.70;80.10;;;;;;5017600;28;20045;-74
2023/03/28 08:16:41;;;;;;;9.45;3.35;;;2.60;85.70;;;;;;5015230;28;20049;-74
2023/03/28 08:19:08;;;;;;;8.68;2.78;;;3.70;83.50;;;;;;5020077;28;20046;-74
2023/03/28 08:21:37;;;;;;;5.35;2.83;;;5.20;78.90;;;;;;5022223;28;20112;-74
2023/03/28 08:24:06;;;;;;;6.47;2.45;;;6.30;75.80;;;;;;5022318;28;20041;-74
2023/03/28 08:26:33;;;;;;;4.18;1.30;;;7.20;73.50;;;;;;5015637;28;20061;-74
2023/03/28 08:29:01;;;;;;;5.15;1.10;;;8.10;69.30;;;;;;5021638;28;20060;-74
2023/03/28 08:31:28;;;;;;;2.47;1.02;;;8.00;67.60;;;;;;5023512;28;20133;-74
2023/03/28 08:33:56;;;;;;;4.20;1.10;;;8.30;64.70;;;;;;5023052;28;20125;-74
2023/03/28 08:36:25;;;;;;;3.80;1.50;;;7.10;66.40;;;;;;5023678;28;20119;-74
2023/03/28 08:38:59;;;;;;;3.83;1.40;;;7.80;66.70;;;;;;5019109;28;20057;-74
2023/03/28 08:41:44;;;;;;;3.33;1.23;;;8.20;65.30;;;;;;5017838;28;20672;-74
2023/03/28 08:44:26;;;;;;;3.92;1.40;;;8.00;63.40;;;;;;5021356;28;20152;-74
2023/03/28 08:47:04;;;;;;;6.30;1.08;;;8.00;63.50;;;;;;5023658;28;20049;-74
2023/03/28 08:49:43;;;;;;;6.05;1.10;;;7.70;64.40;;;;;;5023354;28;20489;-74
2023/03/28 08:52:14;;;;;;;3.97;1.30;;;8.10;63.30;;;;;;5016784;28;20057;-74
2023/03/28 08:55:26;;;;;;;3.83;1.10;;;8.70;61.70;;;;;;5011422;28;20407;-73
2023/03/28 08:57:54;;;;;;;5.82;1.23;;;9.70;62.20;;;;;;4968096;28;20050;-73
2023/03/28 09:00:33;;;;;;;4.03;1.20;;;10.20;58.50;;;;;;5006590;28;20132;-74
2023/03/28 09:02:59;;;;;;;3.20;1.05;;;10.00;59.00;;;;;;5019871;28;20066;-74
2023/03/28 09:05:50;;;;;;;2.70;1.08;;;9.90;61.40;;;;;;5019991;28;20708;-75
2023/03/28 09:08:39;;;;;;;2.17;1.00;;;10.20;59.10;;;;;;5012714;28;20059;-75
2023/03/28 09:11:15;;;;;;;2.20;1.10;;;9.30;61.00;;;;;;5013202;28;20053;-73
2023/03/28 09:13:50;;;;;;;5.93;1.42;;;9.80;58.20;;;;;;5017165;28;20049;-73
2023/03/28 09:17:05;;;;;;;3.97;2.05;;;8.40;60.20;;;;;;5018899;28;20045;-74
2023/03/28 09:19:53;;;;;;;3.78;1.40;;;7.40;63.10;;;;;;4968831;28;20050;-73
2023/03/28 09:22:53;;;;;;;3.58;1.70;;;6.20;62.30;;;;;;5013804;28;20101;-72
2023/03/28 09:25:41;;;;;;;3.65;1.02;;;6.30;63.20;;;;;;5015243;28;20473;-73
2023/03/28 09:28:33;;;;;;;2.97;1.20;;;5.90;63.00;;;;;;5021766;28;20053;-72
2023/03/28 09:31:00;;;;;;;1.67;0.75;;;5.50;65.60;;;;;;5018382;28;20773;-73
2023/03/28 09:33:36;;;;;;;2.05;0.75;;;5.60;68.20;;;;;;5020500;28;20049;-72
2023/03/28 09:36:11;;;;;;;2.78;0.75;;;6.00;60.80;;;;;;5018411;28;20056;-73
2023/03/28 09:38:48;;;;;;;3.28;0.70;;;6.20;65.40;;;;;;5011366;28;20046;-73
2023/03/28 09:41:26;;;;;;;23.08;1.80;;;7.50;61.10;;;;;;5014741;28;20148;-73
2023/03/28 09:44:00;;;;;;;1.85;0.80;;;9.10;59.20;;;;;;5022359;28;20053;-73
2023/03/28 09:46:40;;;;;;;7.70;1.13;;;9.70;58.40;;;;;;5018796;28;20054;-75
2023/03/28 09:49:18;;;;;;;1.52;0.68;;;10.00;54.40;;;;;;5015558;28;20072;-73
2023/03/28 09:51:45;;;;;;;1.70;0.82;;;10.70;51.70;;;;;;5018192;28;20736;-73
2023/03/28 09:54:12;;;;;;;3.00;0.70;;;10.70;50.90;;;;;;5018852;28;20504;-74
2023/03/28 09:56:45;;;;;;;3.53;0.70;;;9.40;50.70;;;;;;5015336;28;20494;-73
2023/03/28 09:59:28;;;;;;;1.65;0.85;;;8.10;57.80;;;;;;5018635;28;20050;-73
2023/03/28 10:01:56;;;;;;;1.10;0.60;;;8.80;58.20;;;;;;5017281;28;20128;-73
2023/03/28 10:04:26;;;;;;;4.68;0.60;;;9.70;55.20;;;;;;5031345;28;20056;-73
2023/03/28 10:06:55;;;;;;;3.13;0.77;;;11.00;54.60;;;;;;5017755;28;20045;-73
2023/03/28 10:09:23;;;;;;;4.43;0.65;;;10.30;50.00;;;;;;5032543;28;20064;-73
2023/03/28 10:11:58;;;;;;;7.88;0.80;;;10.40;51.10;;;;;;5040996;28;20049;-73
2023/03/28 10:14:36;;;;;;;5.88;0.95;;;9.80;53.00;;;;;;5020037;28;20096;-73
2023/03/28 10:17:36;;;;;;;4.13;0.70;;;9.60;48.60;;;;;;5026126;28;20045;-73
2023/03/28 10:20:15;;;;;;;1.48;0.50;;;9.00;50.30;;;;;;5025523;28;20548;-74
2023/03/28 10:22:46;;;;;;;2.75;0.50;;;9.90;53.10;;;;;;5020929;28;20049;-75
2023/03/28 10:25:49;;;;;;;2.05;0.50;;;11.30;52.70;;;;;;5031466;28;20053;-75
2023/03/28 10:28:26;;;;;;;1.35;0.40;;;12.50;46.50;;;;;;5022054;28;20055;-74
2023/03/28 10:31:00;;;;;;;1.48;0.50;;;12.10;45.40;;;;;;5020657;28;20099;-75
2023/03/28 10:33:35;;;;;;;9.25;1.15;;;11.10;49.70;;;;;;5021086;28;20060;-74
2023/03/28 10:36:11;;;;;;;6.28;1.92;;;11.80;50.00;;;;;;5020975;28;20053;-74
2023/03/28 10:38:48;;;;;;;12.40;2.45;;;11.60;46.90;;;;;;5027099;28;20049;-74
2023/03/28 10:41:20;;;;;;;12.88;3.58;;;10.20;49.40;;;;;;5023986;28;20049;-73
2023/03/28 10:43:51;;;;;;;11.70;1.40;;;11.10;49.40;;;;;;5025597;28;20049;-73
2023/03/28 10:46:31;;;;;;;4.25;0.85;;;12.50;49.60;;;;;;5017285;28;20052;-70
2023/03/28 10:49:19;;;;;;;4.15;0.63;;;12.50;41.50;;;;;;5023681;28;20490;-70
2023/03/28 10:51:46;;;;;;;11.23;0.90;;;10.20;42.40;;;;;;5024896;28;20164;-72
2023/03/28 10:54:36;;;;;;;1.48;0.55;;;9.70;45.90;;;;;;5021235;28;20406;-71
2023/03/28 10:57:20;;;;;;;3.05;0.57;;;10.60;48.00;;;;;;5019740;28;20045;-74
2023/03/28 11:00:11;;;;;;;10.20;0.68;;;12.20;45.60;;;;;;5262809;22;20532;-73
2023/03/28 11:03:23;;;;;;;2.80;0.73;;;12.70;45.00;;;;;;5081256;28;20123;-72
2023/03/28 11:06:05;;;;;;;25.90;2.00;;;12.60;44.00;;;;;;5041003;28;20856;-71
2023/03/28 11:08:52;;;;;;;9.57;1.30;;;13.30;45.60;;;;;;5075413;28;20139;-70
2023/03/28 11:11:44;;;;;;;1.15;0.60;;;13.40;42.50;;;;;;5071594;28;20063;-70
2023/03/28 11:14:21;;;;;;;4.88;1.10;;;12.60;43.70;;;;;;5081282;28;20485;-71
2023/03/28 11:16:59;;;;;;;3.55;1.30;;;12.50;41.00;;;;;;5075074;28;20094;-70
2023/03/28 11:19:41;;;;;;;1.65;0.60;;;11.60;44.80;;;;;;5071316;28;20576;-71
2023/03/28 11:26:11;;;;;;;4.07;1.15;;;13.60;42.90;;;;;;5074999;28;20081;-71
2023/03/28 11:29:00;;;;;;;16.15;1.77;;;14.70;42.80;;;;;;5062137;28;20075;-71
2023/03/28 11:31:34;;;;;;;4.05;1.65;;;14.70;41.10;;;;;;5084588;28;20048;-73
2023/03/28 11:34:27;;;;;;;3.03;1.00;;;13.40;46.90;;;;;;5073665;28;20051;-73
2023/03/28 11:37:06;;;;;;;4.82;0.70;;;15.90;44.70;;;;;;5075083;22;20059;-72
2023/03/28 11:39:50;;;;;;;2.67;0.90;;;16.30;39.60;;;;;;5054171;28;20072;-72
2023/03/28 11:43:04;;;;;;;2.05;0.50;;;14.30;39.90;;;;;;5060787;28;20416;-71
2023/03/28 11:45:36;;;;;;;4.75;0.70;;;14.50;39.70;;;;;;5051778;28;20045;-73
2023/03/28 11:48:41;;;;;;;0.95;0.63;;;14.20;41.20;;;;;;5059922;28;20051;-71
2023/03/28 11:51:16;;;;;;;4.55;0.98;;;14.80;39.70;;;;;;5059091;28;20061;-71
2023/03/28 11:53:47;;;;;;;5.55;0.63;;;15.40;38.60;;;;;;5070714;23;20038;-70
2023/03/28 11:56:31;;;;;;;6.07;0.90;;;16.00;37.70;;;;;;5073006;28;20125;-71
2023/03/28 11:59:05;;;;;;;2.97;0.63;;;15.10;38.60;;;;;;5061295;28;20045;-72
2023/03/28 12:01:36;;;;;;;3.03;0.63;;;14.40;38.70;;;;;;5060683;28;20083;-71
2023/03/28 12:04:06;;;;;;;1.42;0.50;;;14.60;38.90;;;;;;5080107;28;20076;-72
2023/03/28 12:06:42;;;;;;;5.30;0.52;;;14.70;39.90;;;;;;5054301;28;20139;-72
2023/03/28 12:09:29;;;;;;;19.35;2.25;;;14.20;39.90;;;;;;5074787;28;20050;-72
2023/03/28 12:12:14;;;;;;;4.40;0.63;;;14.20;40.50;;;;;;5077022;28;20400;-72
2023/03/28 12:14:52;;;;;;;1.67;0.70;;;14.70;41.20;;;;;;5086997;28;20070;-72
2023/03/28 12:17:48;;;;;;;1.20;0.60;;;13.90;41.30;;;;;;5077954;28;20051;-72
2023/03/28 12:20:58;;;;;;;5.65;1.50;;;13.90;43.90;;;;;;5056993;28;20063;-72
2023/03/28 12:23:36;;;;;;;1.70;0.80;;;14.80;40.80;;;;;;5088245;22;20151;-72
2023/03/28 12:26:41;;;;;;;6.00;1.25;;;15.30;41.60;;;;;;5072604;28;20043;-72
2023/03/28 12:29:15;;;;;;;2.78;0.60;;;14.50;40.10;;;;;;5071671;28;20051;-72
2023/03/28 12:31:49;;;;;;;2.55;0.80;;;13.80;41.00;;;;;;5060131;28;20179;-72
2023/03/28 12:34:52;;;;;;;4.18;1.00;;;15.00;41.30;;;;;;5069435;28;20055;-72
2023/03/28 12:37:38;;;;;;;4.28;0.60;;;15.90;40.90;;;;;;5058408;28;20083;-72
2023/03/28 12:40:14;;;;;;;2.42;0.88;;;16.60;38.20;;;;;;5065713;28;20227;-72
2023/03/28 12:42:43;;;;;;;1.88;0.60;;;15.60;41.40;;;;;;5062363;28;20139;-72
2023/03/28 12:45:20;;;;;;;2.50;0.70;;;14.60;40.70;;;;;;5066215;28;20083;-72
2023/03/28 12:51:15;;;;;;;4.30;1.20;;;14.70;40.80;;;;;;5065143;22;20089;-72
2023/03/28 12:54:04;;;;;;;2.80;1.13;;;15.00;38.60;;;;;;5046129;28;20079;-72
2023/03/28 12:56:31;;;;;;;1.48;0.95;;;14.10;40.30;;;;;;5045432;28;20056;-72
2023/03/28 12:58:58;;;;;;;3.58;1.50;;;14.90;40.50;;;;;;5063881;28;20064;-72
2023/03/28 13:01:55;;;;;;;5.78;1.05;;;14.00;40.60;;;;;;5037585;28;20161;-72
2023/03/28 13:04:34;;;;;;;3.90;1.38;;;13.10;42.90;;;;;;5032512;28;20094;-72
2023/03/28 13:07:22;;;;;;;2.92;1.13;;;13.30;42.60;;;;;;5050261;28;20048;-72
2023/03/28 13:09:58;;;;;;;3.55;1.40;;;13.50;41.20;;;;;;5034644;28;20457;-71
2023/03/28 13:12:44;;;;;;;7.13;1.50;;;12.60;43.70;;;;;;5054280;28;20051;-71
2023/03/28 13:15:13;;;;;;;;;;;12.30;43.70;;;;;;5050905;28;20049;-72
2023/03/28 13:18:07;;;;;;;3.92;1.85;;;12.30;42.10;;;;;;5062671;28;19929;-72
2023/03/28 13:20:44;;;;;;;6.07;1.10;;;12.30;42.50;;;;;;5042558;28;20670;-71
2023/03/28 13:23:14;;;;;;;2.50;1.10;;;12.60;44.50;;;;;;5058742;28;20135;-72
2023/03/28 13:25:51;;;;;;;6.05;1.20;;;12.10;44.00;;;;;;5046504;28;20063;-72
2023/03/28 13:28:23;;;;;;;8.00;1.45;;;12.20;44.20;;;;;;5041814;28;20114;-72
2023/03/28 13:31:08;;;;;;;3.58;1.08;;;12.70;46.60;;;;;;5055843;28;20052;-72
2023/03/28 13:33:37;;;;;;;6.97;1.20;;;12.60;40.30;;;;;;5056046;28;20045;-71
2023/03/28 13:36:04;;;;;;;4.57;1.30;;;12.40;42.00;;;;;;5057635;28;20156;-72
2023/03/28 13:39:08;;;;;;;2.63;0.98;;;12.60;44.10;;;;;;5048079;28;20063;-72
2023/03/28 13:41:41;;;;;;;1.95;0.80;;;12.40;40.40;;;;;;5058678;28;20059;-72